Time;durP1;ratioP1;P1;durP2;ratioP2;P2;SDS_P1;SDS_P2;PMS_P1;PMS_P2;Temp;Humidity;BMP_temperature;BMP_pressure;BME280_temperature;BME280_humidity;BME280_pressure;Samples;Min_cycle;Max_cycle;Signal;HPM_P1;HPM_P2
2023/08/18 00:00:24;;;;;;;4.05;1.83;;;;;;;23.16;66.85;100341.72;10492781;28;20060;-73
2023/08/18 00:05:25;;;;;;;2.38;2.15;;;;;;;23.14;66.89;100343.03;10500596;28;20053;-72
2023/08/18 00:10:27;;;;;;;2.30;2.10;;;;;;;23.11;67.40;100333.44;10494450;28;20364;-71
2023/08/18 00:15:28;;;;;;;4.78;1.65;;;;;;;23.05;67.20;100331.72;10495440;28;20602;-74
2023/08/18 00:20:29;;;;;;;6.45;1.98;;;;;;;23.05;67.83;100331.72;10491368;28;20048;-71
2023/08/18 00:25:31;;;;;;;2.97;2.20;;;;;;;22.92;67.57;100332.09;10492580;28;20162;-72
2023/08/18 00:30:32;;;;;;;1.85;1.75;;;;;;;22.88;67.79;100334.53;10491320;28;20045;-74
2023/08/18 00:35:34;;;;;;;4.15;2.08;;;;;;;22.86;67.89;100336.69;10476229;28;20182;-72
2023/08/18 00:40:35;;;;;;;2.33;2.13;;;;;;;22.87;67.80;100334.81;10475034;28;20056;-74
2023/08/18 00:45:37;;;;;;;5.55;2.55;;;;;;;22.80;68.22;100335.00;10485259;28;20073;-72
2023/08/18 00:50:39;;;;;;;2.55;2.13;;;;;;;22.84;68.03;100338.06;10488873;28;20041;-73
2023/08/18 00:55:41;;;;;;;3.75;2.28;;;;;;;22.82;67.91;100334.75;10488692;28;20055;-74
2023/08/18 01:00:44;;;;;;;2.92;1.77;;;;;;;22.78;68.17;100334.44;10476554;28;20108;-73
2023/08/18 01:05:45;;;;;;;3.95;2.10;;;;;;;22.72;68.29;100329.97;10481353;28;20040;-74
2023/08/18 01:11:20;;;;;;;2.55;2.15;;;;;;;22.66;68.49;100331.81;10490429;28;20119;-74
2023/08/18 01:16:25;;;;;;;2.53;2.03;;;;;;;22.64;68.34;100333.19;10493501;28;20048;-73
2023/08/18 01:21:27;;;;;;;2.90;2.07;;;;;;;22.55;68.57;100324.56;10494769;28;20044;-74
2023/08/18 01:26:28;;;;;;;5.00;2.38;;;;;;;22.43;69.07;100319.22;10486642;28;20045;-73
2023/08/18 01:31:33;;;;;;;4.70;2.22;;;;;;;22.44;68.96;100306.38;10491889;28;20115;-74
2023/08/18 01:36:38;;;;;;;2.63;2.35;;;;;;;22.35;69.39;100312.31;10501934;28;20041;-74
2023/08/18 01:41:41;;;;;;;3.03;2.33;;;;;;;22.33;69.56;100308.16;10494762;28;20072;-74
2023/08/18 01:46:43;;;;;;;3.97;2.75;;;;;;;22.34;69.37;100310.63;10494791;28;20222;-73
2023/08/18 01:51:44;;;;;;;3.28;2.70;;;;;;;22.36;69.34;100297.50;10498463;28;20036;-74
2023/08/18 01:56:46;;;;;;;4.68;3.15;;;;;;;22.36;69.25;100294.78;10494813;28;20085;-72
2023/08/18 02:01:47;;;;;;;3.47;2.97;;;;;;;22.36;69.07;100281.06;10497329;28;20112;-71
2023/08/18 02:06:49;;;;;;;4.90;2.63;;;;;;;22.35;69.30;100279.44;10495970;28;20048;-73
2023/08/18 02:11:50;;;;;;;3.70;2.78;;;;;;;22.32;69.23;100273.63;10485310;28;20116;-72
2023/08/18 02:16:51;;;;;;;3.58;3.13;;;;;;;22.30;69.71;100267.59;10497766;28;20071;-73
2023/08/18 02:21:53;;;;;;;6.28;3.30;;;;;;;22.25;69.64;100270.25;10489178;28;20060;-73
2023/08/18 02:26:55;;;;;;;7.10;2.90;;;;;;;22.16;69.93;100284.38;10493098;28;20044;-72
2023/08/18 02:31:57;;;;;;;3.40;3.10;;;;;;;22.07;70.14;100272.19;10483344;28;20040;-72
2023/08/18 02:36:58;;;;;;;6.30;3.35;;;;;;;22.03;70.48;100272.97;10496326;28;20048;-75
2023/08/18 02:42:00;;;;;;;5.65;3.30;;;;;;;22.00;70.14;100277.06;10501949;28;20108;-73
2023/08/18 02:47:01;;;;;;;4.57;3.40;;;;;;;21.91;70.31;100271.16;10496289;28;20107;-73
2023/08/18 02:52:03;;;;;;;4.28;3.75;;;;;;;21.83;70.52;100271.59;10499034;28;20060;-72
2023/08/18 02:57:05;;;;;;;4.10;3.50;;;;;;;21.74;70.89;100270.38;10496378;28;20344;-73
2023/08/18 03:02:06;;;;;;;5.50;3.78;;;;;;;21.70;71.13;100266.50;10495426;28;20082;-73
2023/08/18 03:07:08;;;;;;;5.90;3.80;;;;;;;21.66;71.00;100268.91;10494120;28;20059;-73
2023/08/18 03:12:09;;;;;;;5.13;4.13;;;;;;;21.65;70.98;100274.66;10490151;28;20123;-73
2023/08/18 03:17:10;;;;;;;4.32;3.60;;;;;;;21.62;71.29;100270.47;10490071;28;20105;-73
2023/08/18 03:22:12;;;;;;;5.40;4.07;;;;;;;21.66;70.75;100271.63;10492176;28;20052;-72
2023/08/18 03:27:13;;;;;;;7.65;3.45;;;;;;;21.69;70.98;100268.41;10493690;28;20036;-74
2023/08/18 03:32:15;;;;;;;5.63;3.00;;;;;;;21.65;71.11;100266.44;10490642;28;20055;-71
2023/08/18 03:37:16;;;;;;;5.00;3.90;;;;;;;21.66;70.92;100270.81;10496337;28;20060;-73
2023/08/18 03:42:17;;;;;;;6.07;4.75;;;;;;;21.67;70.83;100270.56;10490848;28;20036;-74
2023/08/18 03:47:19;;;;;;;5.82;4.35;;;;;;;21.58;71.17;100267.44;10484758;28;20048;-74
2023/08/18 03:52:20;;;;;;;5.18;4.28;;;;;;;21.52;71.28;100265.69;10488854;28;20112;-74
2023/08/18 03:57:22;;;;;;;7.35;4.68;;;;;;;21.51;70.90;100269.50;10487993;28;20072;-73
2023/08/18 04:02:24;;;;;;;7.55;4.32;;;;;;;21.49;71.07;100281.78;10489523;28;20064;-72
2023/08/18 04:07:25;;;;;;;7.43;4.50;;;;;;;21.39;71.21;100279.69;10489380;28;20061;-73
2023/08/18 04:12:27;;;;;;;6.50;5.00;;;;;;;21.31;71.59;100280.94;10489037;28;20318;-71
2023/08/18 04:17:29;;;;;;;8.60;5.03;;;;;;;21.32;71.18;100279.03;10486131;28;20078;-70
2023/08/18 04:22:30;;;;;;;8.57;5.28;;;;;;;21.29;71.68;100288.56;10480476;28;20236;-68
2023/08/18 04:27:32;;;;;;;10.10;5.60;;;;;;;21.28;71.26;100294.28;10481795;28;20260;-69
2023/08/18 04:32:34;;;;;;;7.32;5.22;;;;;;;21.28;71.58;100291.53;10485221;28;20044;-68
2023/08/18 04:37:35;;;;;;;8.10;5.50;;;;;;;21.29;71.18;100299.50;10488761;28;20094;-68
2023/08/18 04:42:37;;;;;;;9.07;5.65;;;;;;;21.30;71.17;100303.88;10489208;28;20091;-69
2023/08/18 04:47:38;;;;;;;7.90;5.85;;;;;;;21.27;71.51;100315.31;10486738;28;20051;-70
2023/08/18 04:52:40;;;;;;;7.68;6.13;;;;;;;21.22;71.93;100308.94;10480300;28;20053;-69
2023/08/18 04:57:41;;;;;;;10.63;5.78;;;;;;;21.17;72.08;100318.72;10489408;28;20103;-69
2023/08/18 05:02:42;;;;;;;10.80;5.80;;;;;;;21.19;71.64;100313.81;10489891;28;20048;-69
2023/08/18 05:07:45;;;;;;;6.07;5.47;;;;;;;21.27;71.95;100317.22;10483140;28;20067;-69
2023/08/18 05:12:46;;;;;;;7.93;5.57;;;;;;;21.30;72.02;100314.81;10494908;28;20435;-68
2023/08/18 05:17:48;;;;;;;7.88;5.55;;;;;;;21.32;72.08;100317.31;10496293;28;20296;-69
2023/08/18 05:22:51;;;;;;;8.40;5.97;;;;;;;21.40;71.65;100305.94;10490867;28;20436;-69
2023/08/18 05:27:53;;;;;;;6.78;5.07;;;;;;;21.45;71.56;100305.25;10492962;28;20375;-68
2023/08/18 05:32:54;;;;;;;7.65;5.43;;;;;;;21.54;72.01;100320.16;10496702;28;20305;-69
2023/08/18 05:37:56;;;;;;;9.45;5.00;;;;;;;21.64;71.63;100323.03;10493696;28;20052;-67
2023/08/18 05:42:57;;;;;;;10.98;5.28;;;;;;;21.79;71.37;100312.31;10490026;28;20075;-67
2023/08/18 05:47:58;;;;;;;8.90;5.70;;;;;;;21.85;71.86;100324.19;10491644;28;20446;-68
2023/08/18 05:53:02;;;;;;;5.55;4.32;;;;;;;21.93;71.58;100320.19;10490167;28;20049;-67
2023/08/18 05:58:04;;;;;;;9.30;5.15;;;;;;;21.93;71.72;100326.47;10492256;28;20311;-68
2023/08/18 06:03:05;;;;;;;5.57;4.78;;;;;;;22.04;71.65;100337.56;10496879;28;20060;-69
2023/08/18 06:08:06;;;;;;;6.20;4.88;;;;;;;22.09;71.88;100341.22;10490739;28;20040;-67
2023/08/18 06:13:09;;;;;;;5.28;4.25;;;;;;;22.22;71.62;100339.22;10492868;28;20056;-66
2023/08/18 06:18:10;;;;;;;4.47;3.75;;;;;;;22.39;70.86;100337.25;10478360;28;20057;-66
2023/08/18 06:23:12;;;;;;;8.73;4.43;;;;;;;22.55;70.74;100347.34;10487395;28;20119;-68
2023/08/18 06:28:13;;;;;;;6.68;3.40;;;;;;;22.77;70.07;100346.50;10490596;28;20228;-68
2023/08/18 06:33:15;;;;;;;5.20;3.22;;;;;;;22.93;69.75;100345.56;10491395;28;20043;-68
2023/08/18 06:38:16;;;;;;;6.53;3.42;;;;;;;23.01;69.66;100352.50;10491156;28;20044;-68
2023/08/18 06:43:18;;;;;;;3.30;3.00;;;;;;;23.09;69.51;100357.53;10490170;28;20083;-67
2023/08/18 06:48:19;;;;;;;3.20;2.55;;;;;;;23.31;69.02;100360.22;10488963;28;20063;-68
2023/08/18 06:53:20;;;;;;;4.60;2.63;;;;;;;23.40;68.40;100352.34;10487768;28;20055;-68
2023/08/18 06:58:22;;;;;;;3.17;2.78;;;;;;;23.49;68.43;100358.16;10485637;28;20053;-68
2023/08/18 07:03:23;;;;;;;2.72;2.53;;;;;;;23.58;68.33;100353.88;10489326;28;20051;-69
2023/08/18 07:08:25;;;;;;;6.65;2.13;;;;;;;23.73;67.78;100355.88;10490299;28;20368;-68
2023/08/18 07:13:27;;;;;;;6.82;1.98;;;;;;;23.85;67.59;100351.06;10489801;28;21712;-68
2023/08/18 07:18:29;;;;;;;2.92;2.00;;;;;;;24.00;67.12;100357.75;10489605;28;20105;-67
2023/08/18 07:23:30;;;;;;;5.13;1.95;;;;;;;24.14;66.39;100356.19;10490994;28;20115;-68
2023/08/18 07:28:31;;;;;;;6.03;2.75;;;;;;;24.27;65.84;100355.72;10485020;28;20413;-67
2023/08/18 07:33:34;;;;;;;3.95;2.10;;;;;;;24.39;65.25;100358.25;10488200;28;20044;-67
2023/08/18 07:38:36;;;;;;;3.05;1.60;;;;;;;24.60;64.83;100359.16;10487555;28;20048;-68
2023/08/18 07:43:37;;;;;;;2.25;2.03;;;;;;;24.72;64.12;100362.53;10482912;28;20299;-68
2023/08/18 07:48:39;;;;;;;4.18;1.65;;;;;;;24.87;63.71;100366.41;10469329;28;20252;-67
2023/08/18 07:53:40;;;;;;;3.30;1.75;;;;;;;25.02;62.98;100369.19;10487509;28;20106;-67
2023/08/18 07:58:42;;;;;;;6.45;2.05;;;;;;;25.13;63.20;100361.78;10489010;28;20630;-66
2023/08/18 08:03:43;;;;;;;3.13;1.60;;;;;;;25.19;62.90;100363.44;10484251;28;20112;-68
2023/08/18 08:08:44;;;;;;;3.25;1.63;;;;;;;25.30;62.80;100364.31;10482969;28;20045;-69
2023/08/18 08:13:46;;;;;;;3.47;2.08;;;;;;;25.50;61.93;100371.75;10488035;28;20116;-67
2023/08/18 08:18:47;;;;;;;2.70;1.42;;;;;;;25.71;61.63;100375.31;10489725;28;20359;-67
2023/08/18 08:23:49;;;;;;;2.58;1.48;;;;;;;25.88;61.12;100367.59;10489738;28;20056;-68
2023/08/18 08:28:50;;;;;;;3.35;1.50;;;;;;;26.01;60.63;100362.66;10485921;28;20064;-69
2023/08/18 08:33:51;;;;;;;2.22;1.88;;;;;;;26.17;60.66;100358.75;10471254;28;20112;-69
2023/08/18 08:38:53;;;;;;;3.42;1.60;;;;;;;26.33;59.91;100358.72;10483596;28;20068;-67
2023/08/18 08:43:54;;;;;;;2.50;1.52;;;;;;;26.50;59.94;100361.94;10492197;28;20087;-67
2023/08/18 08:49:02;;;;;;;3.53;1.90;;;;;;;26.60;59.12;100356.44;10483564;28;20076;-67
2023/08/18 08:54:07;;;;;;;4.47;1.23;;;;;;;26.80;58.97;100351.91;10484260;28;20051;-71
2023/08/18 08:59:09;;;;;;;2.50;1.67;;;;;;;26.96;58.63;100350.69;10485073;28;20388;-67
2023/08/18 09:04:11;;;;;;;3.40;1.48;;;;;;;27.04;58.80;100341.81;10491970;28;20056;-67
2023/08/18 09:09:14;;;;;;;3.17;1.67;;;;;;;27.23;57.89;100352.16;10481801;28;20068;-68
2023/08/18 09:14:16;;;;;;;4.45;1.40;;;;;;;27.43;57.31;100349.28;10490936;28;20052;-68
2023/08/18 09:19:18;;;;;;;4.43;1.90;;;;;;;27.48;56.81;100348.41;10487395;28;20072;-69
2023/08/18 09:24:20;;;;;;;2.97;1.50;;;;;;;27.58;56.66;100347.50;10483529;28;20056;-69
2023/08/18 09:29:22;;;;;;;3.72;1.23;;;;;;;27.84;55.72;100340.63;10484365;28;20445;-69
2023/08/18 09:34:24;;;;;;;2.13;1.33;;;;;;;27.99;54.76;100333.31;10485847;28;20120;-67
2023/08/18 09:39:25;;;;;;;3.78;1.70;;;;;;;28.07;54.55;100332.69;10475783;28;20045;-68
2023/08/18 09:44:28;;;;;;;3.03;1.30;;;;;;;28.32;53.71;100333.47;10485047;28;20041;-68
2023/08/18 09:49:34;;;;;;;3.88;1.20;;;;;;;28.44;53.17;100314.53;10485013;28;20045;-71
2023/08/18 09:54:39;;;;;;;;;;;;;;;28.62;54.23;100321.25;10496337;28;20055;-70
2023/08/18 09:59:44;;;;;;;2.78;1.55;;;;;;;28.81;53.39;100319.31;10495255;28;19967;-70
2023/08/18 10:04:46;;;;;;;2.05;1.00;;;;;;;29.06;51.93;100331.94;10499117;28;20237;-73
2023/08/18 10:09:47;;;;;;;3.95;1.75;;;;;;;29.02;51.59;100317.03;10511211;28;20052;-71
2023/08/18 10:14:51;;;;;;;3.65;1.25;;;;;;;29.23;51.50;100309.28;10500412;28;20721;-73
2023/08/18 10:19:55;;;;;;;11.73;1.58;;;;;;;29.44;51.02;100308.91;10490626;28;20060;-71
2023/08/18 10:24:56;;;;;;;2.20;1.40;;;;;;;29.61;49.77;100309.16;10491183;28;20055;-70
2023/08/18 10:30:24;;;;;;;5.60;1.42;;;;;;;29.74;51.01;100304.81;10493125;28;20120;-70
2023/08/18 10:35:28;;;;;;;2.38;1.67;;;;;;;30.03;50.60;100304.50;10493825;28;20040;-70
2023/08/18 10:40:29;;;;;;;2.65;1.27;;;;;;;30.40;49.21;100301.88;10491056;28;20063;-69
2023/08/18 10:45:32;;;;;;;4.20;1.63;;;;;;;30.82;49.51;100292.28;10493812;28;20044;-71
2023/08/18 10:50:35;;;;;;;3.25;1.20;;;;;;;31.28;47.59;100279.28;10489716;28;20049;-70
2023/08/18 10:55:37;;;;;;;3.03;1.23;;;;;;;31.57;46.94;100281.59;10488056;28;20104;-71
2023/08/18 11:00:39;;;;;;;2.20;0.90;;;;;;;31.94;45.51;100265.56;10491127;28;20071;-70
2023/08/18 11:05:40;;;;;;;4.10;1.13;;;;;;;32.30;44.31;100260.94;10484854;28;20048;-70
2023/08/18 11:10:43;;;;;;;2.00;1.00;;;;;;;32.54;44.25;100254.91;10487995;28;20117;-70
2023/08/18 11:15:44;;;;;;;3.13;1.10;;;;;;;32.72;44.02;100255.75;10492345;28;20052;-69
2023/08/18 11:20:46;;;;;;;3.22;1.00;;;;;;;32.70;42.36;100253.34;10491856;28;20041;-70
2023/08/18 11:25:48;;;;;;;1.58;0.88;;;;;;;32.69;42.55;100256.44;10531747;28;20059;-68
2023/08/18 11:30:49;;;;;;;3.22;1.20;;;;;;;32.53;41.84;100248.53;10512825;28;20059;-69
2023/08/18 11:35:51;;;;;;;5.35;0.90;;;;;;;32.25;42.34;100255.53;10494721;28;20079;-69
2023/08/18 11:40:53;;;;;;;2.08;1.38;;;;;;;32.33;42.54;100250.00;10488585;28;20108;-70
2023/08/18 11:45:54;;;;;;;5.57;1.30;;;;;;;32.59;41.94;100250.03;10489660;28;20497;-69
2023/08/18 11:50:56;;;;;;;0.82;0.70;;;;;;;32.74;42.20;100233.97;10485485;28;20076;-69
2023/08/18 11:55:58;;;;;;;2.20;0.90;;;;;;;32.85;41.43;100231.69;10498791;28;20052;-69
2023/08/18 12:01:03;;;;;;;2.35;0.75;;;;;;;33.12;41.30;100220.22;10493081;28;20047;-70
2023/08/18 12:06:04;;;;;;;;;;;;;;;33.26;42.29;100214.44;10487030;28;20120;-71
2023/08/18 12:11:06;;;;;;;1.75;0.70;;;;;;;33.43;40.71;100218.31;10486302;28;19917;-69
2023/08/18 12:16:07;;;;;;;1.63;0.70;;;;;;;33.37;39.80;100203.75;10491057;28;20115;-69
2023/08/18 12:21:09;;;;;;;4.88;1.10;;;;;;;33.58;40.38;100203.81;10489088;28;20049;-72
2023/08/18 12:26:10;;;;;;;1.17;0.77;;;;;;;33.46;39.78;100212.91;10482671;28;20123;-70
2023/08/18 12:31:13;;;;;;;1.42;0.90;;;;;;;33.49;40.13;100216.97;10485815;28;20248;-70
2023/08/18 12:36:15;;;;;;;2.40;0.80;;;;;;;33.55;38.77;100210.06;10489405;28;20048;-70
2023/08/18 12:41:16;;;;;;;0.98;0.80;;;;;;;33.72;38.15;100203.63;10484753;28;20044;-69
2023/08/18 12:46:17;;;;;;;1.45;0.70;;;;;;;33.93;38.08;100198.91;10486255;28;20041;-70
2023/08/18 12:51:19;;;;;;;1.48;0.95;;;;;;;34.03;38.17;100202.47;10484727;28;20083;-70
2023/08/18 12:56:20;;;;;;;1.95;0.60;;;;;;;34.21;37.88;100198.44;10482771;28;20341;-71
2023/08/18 13:01:22;;;;;;;2.25;0.52;;;;;;;34.43;37.41;100194.47;10486922;28;20243;-69
2023/08/18 13:06:23;;;;;;;3.72;0.80;;;;;;;34.74;36.27;100198.84;10484401;28;20086;-72
2023/08/18 13:11:24;;;;;;;2.67;0.85;;;;;;;34.70;36.15;100200.69;10495342;28;20068;-71
2023/08/18 13:16:27;;;;;;;2.25;1.23;;;;;;;34.60;36.02;100198.28;10483493;28;20068;-71
2023/08/18 13:21:34;;;;;;;3.45;0.70;;;;;;;34.89;35.91;100197.38;10469877;28;20055;-71
2023/08/18 13:26:37;;;;;;;3.00;0.98;;;;;;;34.85;35.04;100185.25;10487597;28;20103;-71
2023/08/18 13:31:38;;;;;;;2.53;0.63;;;;;;;35.18;35.05;100190.84;10489343;28;20112;-72
2023/08/18 13:36:40;;;;;;;3.17;0.77;;;;;;;35.45;34.94;100182.94;10498503;28;20068;-71
2023/08/18 13:41:42;;;;;;;1.80;0.70;;;;;;;35.50;34.07;100182.72;10494500;28;20111;-71
2023/08/18 13:46:44;;;;;;;2.58;0.93;;;;;;;35.57;34.29;100185.78;10489847;28;20069;-68
2023/08/18 13:51:45;;;;;;;1.05;0.60;;;;;;;35.64;33.96;100185.19;10491863;28;20040;-70
2023/08/18 13:56:47;;;;;;;3.08;1.00;;;;;;;35.83;32.84;100163.06;10499403;28;20191;-70
2023/08/18 14:01:48;;;;;;;1.60;0.70;;;;;;;36.57;32.89;100151.66;10489535;28;20116;-70
2023/08/18 14:06:50;;;;;;;2.05;1.00;;;;;;;37.40;32.58;100159.50;10478278;28;20049;-71
2023/08/18 14:11:51;;;;;;;2.92;0.60;;;;;;;38.47;31.09;100153.56;10493767;28;20117;-70
2023/08/18 14:16:53;;;;;;;1.23;0.60;;;;;;;40.09;29.43;100164.00;10502943;28;20376;-70
2023/08/18 14:21:54;;;;;;;3.30;0.75;;;;;;;41.53;27.62;100161.56;10489991;28;20067;-71
2023/08/18 14:26:56;;;;;;;3.35;0.85;;;;;;;42.39;26.23;100150.75;10492153;28;20048;-70
2023/08/18 14:31:58;;;;;;;0.82;0.55;;;;;;;42.67;24.51;100142.81;10533881;28;20060;-71
2023/08/18 14:36:59;;;;;;;3.65;0.60;;;;;;;43.38;24.32;100142.09;10501446;28;20049;-71
2023/08/18 14:42:01;;;;;;;2.42;0.77;;;;;;;43.12;24.27;100131.97;10506051;28;20253;-71
2023/08/18 14:47:03;;;;;;;1.20;0.75;;;;;;;41.65;25.58;100140.69;10487325;28;20643;-70
2023/08/18 14:52:04;;;;;;;2.83;0.60;;;;;;;40.73;25.76;100122.50;10491227;28;20402;-71
2023/08/18 14:57:06;;;;;;;2.60;0.50;;;;;;;40.23;26.93;100113.50;10476026;28;20108;-71
2023/08/18 15:02:09;;;;;;;3.53;0.70;;;;;;;39.70;26.98;100116.38;10492448;28;20048;-71
2023/08/18 15:07:10;;;;;;;3.22;0.90;;;;;;;40.08;27.47;100111.69;10485893;28;20056;-70
2023/08/18 15:12:11;;;;;;;3.50;0.60;;;;;;;40.75;27.07;100108.06;10491406;28;20056;-71
2023/08/18 15:17:13;;;;;;;1.50;0.50;;;;;;;40.92;26.16;100107.44;10486813;28;20115;-71
2023/08/18 15:22:15;;;;;;;3.08;0.68;;;;;;;40.63;26.92;100104.28;10487616;28;20111;-71
2023/08/18 15:27:17;;;;;;;3.10;0.70;;;;;;;40.43;26.58;100109.31;10494739;28;20075;-71
2023/08/18 15:32:19;;;;;;;3.53;0.80;;;;;;;40.35;26.82;100099.16;10484224;28;20120;-71
2023/08/18 15:37:20;;;;;;;1.25;1.05;;;;;;;40.59;26.53;100099.81;10490329;28;20058;-70
2023/08/18 15:42:21;;;;;;;5.03;0.82;;;;;;;40.48;27.36;100101.72;10490379;28;20275;-71
2023/08/18 15:47:23;;;;;;;4.07;0.68;;;;;;;40.36;27.22;100111.25;10485350;28;20120;-71
2023/08/18 15:52:24;;;;;;;0.93;0.50;;;;;;;40.42;26.31;100106.88;10489021;28;20044;-71
2023/08/18 15:57:26;;;;;;;3.90;1.20;;;;;;;40.27;27.55;100100.25;10489201;28;20068;-70
2023/08/18 16:02:27;;;;;;;2.90;0.50;;;;;;;40.28;27.26;100086.97;10486542;28;20067;-70
2023/08/18 16:07:29;;;;;;;7.07;1.00;;;;;;;40.40;27.26;100089.56;10478127;28;20045;-71
2023/08/18 16:12:30;;;;;;;4.60;1.23;;;;;;;40.57;26.74;100079.69;10488659;28;20341;-72
2023/08/18 16:17:32;;;;;;;1.45;0.60;;;;;;;40.76;27.57;100075.84;10488127;28;20069;-72
2023/08/18 16:22:37;;;;;;;1.52;0.50;;;;;;;40.77;26.79;100083.91;10483986;28;20037;-73
2023/08/18 16:27:39;;;;;;;2.90;0.73;;;;;;;40.74;26.73;100072.56;10484808;28;20236;-73
2023/08/18 16:32:41;;;;;;;6.95;1.30;;;;;;;40.62;26.79;100070.84;10529199;28;20043;-71
2023/08/18 16:37:45;;;;;;;2.20;0.50;;;;;;;40.49;27.01;100078.78;10531056;28;20278;-72
2023/08/18 16:42:47;;;;;;;4.45;0.57;;;;;;;40.63;26.76;100078.13;10505257;28;20048;-71
2023/08/18 16:47:48;;;;;;;1.70;0.90;;;;;;;40.74;26.36;100073.41;10514231;28;20052;-72
2023/08/18 16:52:49;;;;;;;3.30;0.70;;;;;;;40.76;25.98;100073.03;10522328;28;20053;-72
2023/08/18 16:57:51;;;;;;;1.20;0.57;;;;;;;40.76;25.72;100073.84;10521274;28;20075;-70
2023/08/18 17:02:52;;;;;;;3.13;1.02;;;;;;;40.88;25.76;100075.56;10533377;28;20248;-71
2023/08/18 17:07:54;;;;;;;3.88;0.93;;;;;;;40.96;26.03;100077.25;10534113;28;20106;-72
2023/08/18 17:12:55;;;;;;;3.65;0.70;;;;;;;40.94;26.25;100076.00;10541513;28;20041;-70
2023/08/18 17:17:57;;;;;;;2.20;0.90;;;;;;;40.79;26.25;100080.72;10524055;28;20143;-70
2023/08/18 17:22:58;;;;;;;2.90;0.80;;;;;;;40.51;26.32;100067.13;10537632;28;20063;-70
2023/08/18 17:28:02;;;;;;;2.58;0.70;;;;;;;40.13;26.61;100072.75;10538923;28;20044;-71
2023/08/18 17:33:04;;;;;;;2.65;1.20;;;;;;;39.51;27.31;100069.47;10537620;28;20073;-71
2023/08/18 17:38:06;;;;;;;2.58;0.85;;;;;;;38.78;28.20;100073.06;10539842;28;20048;-69
2023/08/18 17:43:07;;;;;;;5.32;0.80;;;;;;;38.15;28.99;100067.84;10536782;28;20389;-69
2023/08/18 17:48:10;;;;;;;2.85;0.90;;;;;;;37.52;30.52;100061.22;10543629;28;20045;-71
2023/08/18 17:53:12;;;;;;;2.60;0.90;;;;;;;36.91;31.02;100065.38;10543308;28;20040;-72
2023/08/18 17:58:13;;;;;;;4.60;0.65;;;;;;;36.30;32.24;100056.13;10537323;28;20044;-71
2023/08/18 18:03:15;;;;;;;3.55;1.08;;;;;;;35.76;33.38;100058.50;10537577;28;20052;-70
2023/08/18 18:08:17;;;;;;;2.80;1.73;;;;;;;35.24;34.24;100066.47;10534237;28;20364;-71
2023/08/18 18:13:18;;;;;;;1.80;0.50;;;;;;;34.73;32.52;100063.97;10541778;28;20404;-72
2023/08/18 18:18:20;;;;;;;3.17;0.65;;;;;;;34.24;33.30;100068.56;10536374;28;20044;-71
2023/08/18 18:23:22;;;;;;;3.53;1.05;;;;;;;33.79;35.23;100064.50;10522330;28;20051;-70
2023/08/18 18:28:23;;;;;;;2.20;0.70;;;;;;;33.37;35.36;100068.03;10510723;28;20056;-73
2023/08/18 18:33:27;;;;;;;6.45;1.23;;;;;;;32.97;36.15;100068.31;10529737;28;20063;-74
2023/08/18 18:38:29;;;;;;;3.70;1.67;;;;;;;32.65;37.67;100078.09;10492194;28;20075;-70
2023/08/18 18:43:30;;;;;;;2.88;1.08;;;;;;;32.33;39.00;100073.91;10492072;28;20285;-71
2023/08/18 18:48:32;;;;;;;3.72;1.40;;;;;;;32.04;40.23;100075.38;10497049;28;20071;-71
2023/08/18 18:53:33;;;;;;;4.00;1.15;;;;;;;31.63;41.21;100069.09;10497499;28;20064;-73
2023/08/18 18:58:35;;;;;;;3.28;1.60;;;;;;;31.04;43.70;100093.56;10493004;28;20394;-71
2023/08/18 19:03:36;;;;;;;2.97;1.38;;;;;;;30.81;44.38;100092.78;10495038;28;20051;-72
2023/08/18 19:08:37;;;;;;;4.35;1.10;;;;;;;30.66;44.51;100098.72;10491145;28;20040;-71
2023/08/18 19:13:39;;;;;;;4.82;1.85;;;;;;;30.42;45.09;100108.19;10491632;28;20111;-71
2023/08/18 19:18:40;;;;;;;3.03;1.30;;;;;;;30.13;46.27;100112.16;10492869;28;20051;-72
2023/08/18 19:23:44;;;;;;;4.90;1.67;;;;;;;29.89;47.53;100112.44;10491307;28;20060;-73
2023/08/18 19:28:45;;;;;;;7.57;1.83;;;;;;;29.74;47.83;100116.38;10481200;28;20448;-71
2023/08/18 19:33:47;;;;;;;4.72;2.55;;;;;;;29.54;48.63;100108.47;10486864;28;20414;-71
2023/08/18 19:38:48;;;;;;;8.90;4.15;;;;;;;29.25;49.96;100110.44;10491435;28;20136;-70
2023/08/18 19:43:49;;;;;;;11.13;5.95;;;;;;;29.07;50.11;100117.66;10483676;28;20080;-70
2023/08/18 19:48:51;;;;;;;11.10;5.40;;;;;;;28.94;50.73;100115.69;10495658;28;20068;-71
2023/08/18 19:53:52;;;;;;;9.88;5.97;;;;;;;28.68;51.75;100113.38;10487578;28;20296;-72
2023/08/18 19:58:53;;;;;;;8.40;5.57;;;;;;;28.41;52.08;100110.50;10492719;28;20067;-71
2023/08/18 20:03:55;;;;;;;6.60;2.38;;;;;;;28.16;52.96;100123.59;10490037;28;20120;-73
2023/08/18 20:08:57;;;;;;;5.88;2.10;;;;;;;27.80;53.72;100123.25;10485973;28;20041;-73
2023/08/18 20:13:59;;;;;;;15.52;4.18;;;;;;;27.82;53.87;100124.59;10484923;28;20075;-74
2023/08/18 20:19:00;;;;;;;2.25;1.58;;;;;;;27.70;53.97;100118.66;10496316;28;20033;-71
2023/08/18 20:24:03;;;;;;;7.53;2.03;;;;;;;27.54;54.59;100122.75;10537539;28;20082;-71
2023/08/18 20:29:05;;;;;;;4.00;1.88;;;;;;;27.41;54.81;100116.84;10525501;28;20041;-71
2023/08/18 20:34:06;;;;;;;9.02;2.63;;;;;;;27.33;55.51;100120.25;10529729;28;20044;-70
2023/08/18 20:39:08;;;;;;;3.15;2.75;;;;;;;27.30;55.32;100129.09;10531968;28;20051;-71
2023/08/18 20:44:09;;;;;;;4.45;2.35;;;;;;;27.24;55.71;100133.03;10530968;28;20040;-71
2023/08/18 20:49:10;;;;;;;5.50;2.00;;;;;;;27.14;55.48;100125.66;10527617;28;20069;-73
2023/08/18 20:54:12;;;;;;;5.80;2.05;;;;;;;27.02;55.94;100128.81;10493081;28;20128;-73
2023/08/18 20:59:13;;;;;;;4.88;1.88;;;;;;;26.91;55.44;100130.84;10493278;28;20079;-72
2023/08/18 21:04:15;;;;;;;3.22;1.80;;;;;;;26.75;56.12;100142.31;10482607;28;20435;-72
2023/08/18 21:09:16;;;;;;;3.33;1.70;;;;;;;26.52;56.42;100153.78;10486854;28;20076;-71
2023/08/18 21:14:17;;;;;;;2.83;1.40;;;;;;;26.47;56.05;100164.00;10494128;28;20064;-72
2023/08/18 21:19:19;;;;;;;8.68;1.77;;;;;;;26.49;56.83;100154.34;10489615;28;20271;-71
2023/08/18 21:24:20;;;;;;;9.60;1.30;;;;;;;26.38;56.86;100161.03;10485731;28;20052;-73
2023/08/18 21:29:22;;;;;;;5.43;1.48;;;;;;;26.28;57.27;100155.59;10486672;28;20083;-71
2023/08/18 21:34:23;;;;;;;4.57;1.13;;;;;;;26.21;57.61;100155.91;10489305;28;22215;-70
2023/08/18 21:39:25;;;;;;;5.38;1.60;;;;;;;26.03;57.38;100151.88;10483707;28;20068;-71
2023/08/18 21:44:26;;;;;;;4.90;1.52;;;;;;;25.85;57.98;100153.34;10483334;28;20052;-74
2023/08/18 21:49:28;;;;;;;3.70;1.63;;;;;;;25.75;58.28;100142.38;10483498;28;20048;-73
2023/08/18 21:54:29;;;;;;;3.28;1.50;;;;;;;25.82;58.00;100139.31;10493425;28;20167;-74
2023/08/18 21:59:31;;;;;;;4.13;1.45;;;;;;;25.77;58.45;100145.66;10499404;28;20036;-74
2023/08/18 22:04:33;;;;;;;4.45;1.10;;;;;;;25.56;58.82;100146.84;10485441;28;20372;-72
2023/08/18 22:09:35;;;;;;;6.63;1.52;;;;;;;25.56;59.26;100144.09;10495097;28;20072;-72
2023/08/18 22:14:36;;;;;;;4.05;1.48;;;;;;;25.59;58.99;100144.34;10488821;28;20051;-72
2023/08/18 22:19:38;;;;;;;5.28;1.67;;;;;;;25.45;59.94;100148.81;10493062;28;20111;-71
2023/08/18 22:24:40;;;;;;;5.80;1.55;;;;;;;25.41;59.28;100136.72;10492727;28;20233;-73
2023/08/18 22:29:42;;;;;;;4.82;1.52;;;;;;;25.37;60.09;100141.94;10490014;28;20052;-72
2023/08/18 22:34:43;;;;;;;7.22;1.38;;;;;;;25.31;59.62;100143.88;10487959;28;20048;-72
2023/08/18 22:39:45;;;;;;;8.43;1.40;;;;;;;25.22;60.51;100142.81;10495747;28;20045;-72
2023/08/18 22:44:46;;;;;;;6.57;1.80;;;;;;;25.13;59.96;100150.75;10491959;28;20064;-73
2023/08/18 22:49:48;;;;;;;4.38;2.00;;;;;;;24.98;60.42;100163.72;10489031;28;20117;-74
2023/08/18 22:54:49;;;;;;;6.93;1.30;;;;;;;24.95;60.73;100165.09;10487665;28;20075;-73
2023/08/18 22:59:50;;;;;;;4.20;1.20;;;;;;;24.72;60.77;100153.59;10486660;28;20055;-74
2023/08/18 23:04:52;;;;;;;7.00;1.60;;;;;;;24.76;60.96;100153.84;10490645;28;20063;-75